UAL5429 PHKO-PHOG
Flight info
| Callsign | UAL5429 |
|---|---|
| Flight time | 0h 31m |
| Altitude | 14000 |
| Route | KOA V1 HARPO CAMPS4 |
| Aircraft | CRJ7/M-SDFGIRWY/S |
Departure
| Time | 2026-04-30 14:34 |
|---|---|
| Airport | Ellison Onizuka Kona International Airport at Keāhole (PHKO) |
Arrival
| Time | 2026-04-30 15:05 |
|---|---|
| Airport | Kahului International Airport (PHOG) |
| Time | Latitude | Longitude | Altitude | Speed | Heading |
|---|---|---|---|---|---|
| 2026-04-30 14:19 | 19.73639 | -156.04228 | 35 ft | 0 kts | 94° |
| 2026-04-30 14:31 | 19.73641 | -156.04225 | 37 ft | 0 kts | 36° |
| 2026-04-30 14:31 | 19.73660 | -156.04257 | 33 ft | 9 kts | 274° |
| 2026-04-30 14:31 | 19.73659 | -156.04306 | 32 ft | 7 kts | 259° |
| 2026-04-30 14:32 | 19.73601 | -156.04339 | 35 ft | 0 kts | 211° |
| 2026-04-30 14:32 | 19.73597 | -156.04347 | 35 ft | 4 kts | 259° |
| 2026-04-30 14:32 | 19.73600 | -156.04410 | 35 ft | 12 kts | 275° |
| 2026-04-30 14:33 | 19.73603 | -156.04501 | 34 ft | 13 kts | 261° |
| 2026-04-30 14:33 | 19.73675 | -156.04580 | 33 ft | 8 kts | 359° |
| 2026-04-30 14:33 | 19.73927 | -156.04565 | 33 ft | 78 kts | 4° |
| 2026-04-30 14:34 | 19.74743 | -156.04498 | 39 ft | 153 kts | 5° |
| 2026-04-30 14:34 | 19.75922 | -156.04382 | 615 ft | 171 kts | 6° |
| 2026-04-30 14:34 | 19.77065 | -156.04349 | 1669 ft | 163 kts | 355° |
| 2026-04-30 14:34 | 19.78195 | -156.04698 | 1994 ft | 194 kts | 330° |
| 2026-04-30 14:35 | 19.80272 | -156.06634 | 3454 ft | 185 kts | 320° |
| 2026-04-30 14:35 | 19.81151 | -156.07567 | 4312 ft | 173 kts | 319° |
| 2026-04-30 14:35 | 19.81918 | -156.08496 | 5055 ft | 165 kts | 315° |
| 2026-04-30 14:36 | 19.82696 | -156.09401 | 5619 ft | 166 kts | 315° |
| 2026-04-30 14:36 | 19.83471 | -156.10298 | 6210 ft | 163 kts | 315° |
| 2026-04-30 14:36 | 19.84250 | -156.11169 | 6756 ft | 162 kts | 314° |
| 2026-04-30 14:36 | 19.85033 | -156.12037 | 7200 ft | 168 kts | 314° |
| 2026-04-30 14:37 | 19.85962 | -156.13072 | 7186 ft | 213 kts | 313° |
| 2026-04-30 14:37 | 19.87044 | -156.14288 | 7541 ft | 238 kts | 313° |
| 2026-04-30 14:37 | 19.88223 | -156.15621 | 8018 ft | 256 kts | 313° |
| 2026-04-30 14:37 | 19.89476 | -156.17049 | 8577 ft | 271 kts | 312° |
| 2026-04-30 14:38 | 19.90781 | -156.18546 | 9317 ft | 278 kts | 312° |
| 2026-04-30 14:38 | 19.92107 | -156.20080 | 10124 ft | 284 kts | 311° |
| 2026-04-30 14:38 | 19.93416 | -156.21604 | 11023 ft | 282 kts | 311° |
| 2026-04-30 14:38 | 19.94738 | -156.23159 | 11834 ft | 285 kts | 311° |
| 2026-04-30 14:39 | 19.96076 | -156.24752 | 12487 ft | 292 kts | 310° |
| 2026-04-30 14:39 | 19.97424 | -156.26406 | 13129 ft | 300 kts | 309° |
| 2026-04-30 14:39 | 19.98807 | -156.28119 | 13612 ft | 314 kts | 315° |
| 2026-04-30 14:40 | 20.02436 | -156.31259 | 13929 ft | 359 kts | 321° |
| 2026-04-30 14:40 | 20.04480 | -156.32937 | 13972 ft | 382 kts | 321° |
| 2026-04-30 14:40 | 20.06630 | -156.34737 | 13989 ft | 399 kts | 320° |
| 2026-04-30 14:40 | 20.08726 | -156.36554 | 13988 ft | 380 kts | 319° |
| 2026-04-30 14:41 | 20.10743 | -156.38312 | 13981 ft | 371 kts | 320° |
| 2026-04-30 14:41 | 20.12727 | -156.40034 | 13970 ft | 365 kts | 321° |
| 2026-04-30 14:41 | 20.14957 | -156.41270 | 13958 ft | 363 kts | 343° |
| 2026-04-30 14:41 | 20.17424 | -156.41808 | 13967 ft | 359 kts | 350° |
| 2026-04-30 14:42 | 20.19884 | -156.42018 | 13970 ft | 348 kts | 356° |
| 2026-04-30 14:42 | 20.22252 | -156.42031 | 13335 ft | 348 kts | 359° |
| 2026-04-30 14:42 | 20.24718 | -156.41997 | 12645 ft | 351 kts | 359° |
| 2026-04-30 14:42 | 20.27130 | -156.41968 | 12025 ft | 351 kts | 359° |
| 2026-04-30 14:43 | 20.29565 | -156.41942 | 11419 ft | 348 kts | 359° |
| 2026-04-30 14:43 | 20.31983 | -156.41916 | 10821 ft | 346 kts | 359° |
| 2026-04-30 14:43 | 20.34380 | -156.41908 | 10234 ft | 343 kts | 359° |
| 2026-04-30 14:43 | 20.36756 | -156.41904 | 9618 ft | 340 kts | 360° |
| 2026-04-30 14:44 | 20.39112 | -156.41899 | 8987 ft | 337 kts | 360° |
| 2026-04-30 14:44 | 20.41406 | -156.41896 | 8339 ft | 322 kts | 360° |
| 2026-04-30 14:44 | 20.43581 | -156.41893 | 7882 ft | 304 kts | 0° |
| 2026-04-30 14:44 | 20.45607 | -156.41889 | 7723 ft | 280 kts | 0° |
| 2026-04-30 14:45 | 20.47079 | -156.41883 | 7270 ft | 277 kts | 0° |
| 2026-04-30 14:45 | 20.49002 | -156.41906 | 6650 ft | 276 kts | 356° |
| 2026-04-30 14:45 | 20.50880 | -156.42221 | 6096 ft | 271 kts | 343° |
| 2026-04-30 14:45 | 20.52637 | -156.42913 | 5597 ft | 273 kts | 339° |
| 2026-04-30 14:46 | 20.54373 | -156.43723 | 5182 ft | 272 kts | 337° |
| 2026-04-30 14:46 | 20.56086 | -156.44575 | 4744 ft | 271 kts | 336° |
| 2026-04-30 14:46 | 20.57788 | -156.45439 | 4382 ft | 267 kts | 336° |
| 2026-04-30 14:46 | 20.59398 | -156.46296 | 4360 ft | 251 kts | 336° |
| 2026-04-30 14:47 | 20.60915 | -156.47115 | 4297 ft | 238 kts | 336° |
| 2026-04-30 14:47 | 20.62340 | -156.47885 | 4191 ft | 219 kts | 336° |
| 2026-04-30 14:47 | 20.63642 | -156.48610 | 4011 ft | 204 kts | 336° |
| 2026-04-30 14:47 | 20.64863 | -156.49304 | 3775 ft | 194 kts | 336° |
| 2026-04-30 14:48 | 20.66030 | -156.49971 | 3539 ft | 186 kts | 336° |
| 2026-04-30 14:48 | 20.67140 | -156.50612 | 3323 ft | 180 kts | 336° |
| 2026-04-30 14:48 | 20.68231 | -156.51262 | 3108 ft | 177 kts | 336° |
| 2026-04-30 14:48 | 20.69320 | -156.51905 | 2906 ft | 182 kts | 336° |
| 2026-04-30 14:49 | 20.70445 | -156.52563 | 2711 ft | 187 kts | 336° |
| 2026-04-30 14:49 | 20.71614 | -156.53186 | 2545 ft | 187 kts | 346° |
| 2026-04-30 14:49 | 20.72912 | -156.53259 | 2475 ft | 192 kts | 3° |
| 2026-04-30 14:49 | 20.74281 | -156.53343 | 2476 ft | 197 kts | 360° |
| 2026-04-30 14:50 | 20.76765 | -156.52601 | 2420 ft | 188 kts | 31° |
| 2026-04-30 14:50 | 20.77822 | -156.51937 | 2411 ft | 163 kts | 35° |
| 2026-04-30 14:51 | 20.79500 | -156.50723 | 2317 ft | 138 kts | 38° |
| 2026-04-30 14:51 | 20.80288 | -156.50108 | 2090 ft | 140 kts | 36° |
| 2026-04-30 14:51 | 20.81846 | -156.48929 | 1673 ft | 135 kts | 34° |
| 2026-04-30 14:52 | 20.82596 | -156.48362 | 1542 ft | 127 kts | 34° |
| 2026-04-30 14:52 | 20.84032 | -156.47279 | 1262 ft | 128 kts | 34° |
| 2026-04-30 14:52 | 20.84750 | -156.46717 | 1168 ft | 129 kts | 33° |
| 2026-04-30 14:53 | 20.86280 | -156.45594 | 812 ft | 137 kts | 32° |
| 2026-04-30 14:53 | 20.87070 | -156.45030 | 592 ft | 130 kts | 32° |
| 2026-04-30 14:54 | 20.88471 | -156.43970 | 220 ft | 115 kts | 33° |
| 2026-04-30 14:54 | 20.89805 | -156.42969 | 253 ft | 135 kts | 34° |
| 2026-04-30 14:55 | 20.91661 | -156.41598 | 1825 ft | 172 kts | 34° |
| 2026-04-30 14:55 | 20.92701 | -156.40888 | 2475 ft | 184 kts | 34° |
| 2026-04-30 14:55 | 20.93896 | -156.38302 | 2917 ft | 215 kts | 97° |
| 2026-04-30 14:56 | 20.92022 | -156.36366 | 2976 ft | 200 kts | 172° |
| 2026-04-30 14:56 | 20.89215 | -156.37127 | 3029 ft | 216 kts | 198° |
| 2026-04-30 14:57 | 20.87786 | -156.37683 | 3035 ft | 219 kts | 199° |
| 2026-04-30 14:57 | 20.84919 | -156.38905 | 2966 ft | 225 kts | 200° |
| 2026-04-30 14:58 | 20.81982 | -156.40173 | 2716 ft | 230 kts | 200° |
| 2026-04-30 14:58 | 20.80542 | -156.40937 | 2545 ft | 233 kts | 214° |
| 2026-04-30 14:58 | 20.77964 | -156.42933 | 2447 ft | 221 kts | 215° |
| 2026-04-30 14:59 | 20.75563 | -156.44767 | 2400 ft | 207 kts | 214° |
| 2026-04-30 15:00 | 20.73979 | -156.48448 | 2394 ft | 193 kts | 295° |
| 2026-04-30 15:00 | 20.75408 | -156.50374 | 2392 ft | 152 kts | 353° |
| 2026-04-30 15:01 | 20.77316 | -156.50719 | 2397 ft | 124 kts | 359° |
| 2026-04-30 15:01 | 20.77846 | -156.50815 | 2358 ft | 113 kts | 358° |
| 2026-04-30 15:01 | 20.79582 | -156.50279 | 2311 ft | 119 kts | 32° |
| 2026-04-30 15:02 | 20.80294 | -156.49869 | 2076 ft | 113 kts | 31° |
| 2026-04-30 15:02 | 20.80995 | -156.49463 | 1887 ft | 116 kts | 33° |
| 2026-04-30 15:03 | 20.83148 | -156.47978 | 1447 ft | 125 kts | 34° |
| 2026-04-30 15:03 | 20.84613 | -156.46865 | 1157 ft | 134 kts | 32° |
| 2026-04-30 15:04 | 20.86101 | -156.45733 | 801 ft | 131 kts | 32° |
| 2026-04-30 15:04 | 20.88327 | -156.44075 | 265 ft | 127 kts | 34° |
| 2026-04-30 15:05 | 20.89926 | -156.42886 | 47 ft | 24 kts | 30° |
| 2026-04-30 15:06 | 20.89938 | -156.43032 | 49 ft | 19 kts | 215° |
| 2026-04-30 15:06 | 20.89665 | -156.43233 | 49 ft | 26 kts | 214° |
| 2026-04-30 15:07 | 20.89359 | -156.43460 | 48 ft | 27 kts | 212° |
| 2026-04-30 15:07 | 20.89183 | -156.43615 | 46 ft | 12 kts | 264° |
| 2026-04-30 15:08 | 20.89227 | -156.43724 | 43 ft | 0 kts | 306° |